Nyk Argus — HPZA — position and weather

sailwx.info

Track history (hours):
 
Tides and Currents Weather Stations Pressure Air Temp Water Temp Dewpoint Dewpoint Depression Visibility Wind Speed Wind Dir Waves Ship Positions

Nyk Argus

Last reported at 2018-Jul-07 12:09 UTC. Time now 2018-Jul-18 05:10 UTC.
Position N 20°55' E 071°31'.
Warning: this ship's position is 10 days out of date.

Length 299.9 m; beam 40 m.

Type: Ship (hazmat cat D). MMSI: 356872000.

Date/timePositionNaut miles runAvg speedWind from/ knotsBaromVisibWave heightAir tempDewpointWater temp
2018-Jul-07 12:09N 20°55' E 071°31'0 0.2
2018-Jul-07 10:09N 20°55' E 071°31'0 2.1
2018-Jul-07 10:00N 20°55' E 071°30'4 6.0
2018-Jul-07 09:22N 20°51' E 071°30'  
2018-Jun-28 00:22N 01°19' E 103°19'617.3
2018-Jun-28 00:00N 01°15' E 103°24'817.3
2018-Jun-27 23:30N 01°13' E 103°32'713.2
2018-Jun-27 23:00N 01°12' E 103°39'4 7.5
2018-Jun-27 22:30N 01°14' E 103°42'4 7.8
2018-Jun-27 22:00N 01°17' E 103°45'1 2.1
2018-Jun-27 21:29N 01°17' E 103°46'0 0.0
2018-Jun-27 20:59N 01°17' E 103°46'0 0.1
2018-Jun-27 20:26N 01°17' E 103°46'0 0.1
2018-Jun-27 20:00N 01°17' E 103°46'0 0.0
2018-Jun-27 19:27N 01°17' E 103°46'0 0.0
2018-Jun-27 18:56N 01°17' E 103°46'0 0.0
2018-Jun-27 18:30N 01°17' E 103°46'0 0.0
2018-Jun-27 17:57N 01°17' E 103°46'0 0.0
2018-Jun-27 17:27N 01°17' E 103°46'0 0.1
2018-Jun-27 16:54N 01°17' E 103°46'0 0.1
2018-Jun-27 16:29N 01°17' E 103°46'0 0.1
2018-Jun-27 16:00N 01°17' E 103°46'0 0.1
2018-Jun-27 15:30N 01°17' E 103°46'0 0.0
2018-Jun-27 15:00N 01°17' E 103°46'0 0.0
2018-Jun-27 14:29N 01°17' E 103°46'0 0.0
2018-Jun-27 14:00N 01°17' E 103°46'0 0.0
2018-Jun-27 13:27N 01°17' E 103°46'0 0.0
2018-Jun-27 12:53N 01°17' E 103°46'0 0.0
2018-Jun-27 12:30N 01°17' E 103°46'  
Track history (hours):
 
Tides and Currents Weather Stations Pressure Air Temp Water Temp Dewpoint Dewpoint Depression Visibility Wind Speed Wind Dir Waves Ship Positions

Nyk Argus

Last reported at 2018-Jul-07 12:09 UTC. Time now 2018-Jul-18 05:10 UTC.
Position N 20°55' E 071°31'.
Warning: this ship's position is 10 days out of date.

Length 299.9 m; beam 40 m.

Type: Ship (hazmat cat D). MMSI: 356872000.

Date/timePositionNaut miles runAvg speedWind from/ knotsBaromVisibWave heightAir tempDewpointWater temp
2018-Jul-07 12:09N 20°55' E 071°31'0 0.2
2018-Jul-07 10:09N 20°55' E 071°31'0 2.1
2018-Jul-07 10:00N 20°55' E 071°30'4 6.0
2018-Jul-07 09:22N 20°51' E 071°30'  
2018-Jun-28 00:22N 01°19' E 103°19'617.3
2018-Jun-28 00:00N 01°15' E 103°24'817.3
2018-Jun-27 23:30N 01°13' E 103°32'713.2
2018-Jun-27 23:00N 01°12' E 103°39'4 7.5
2018-Jun-27 22:30N 01°14' E 103°42'4 7.8
2018-Jun-27 22:00N 01°17' E 103°45'1 2.1
2018-Jun-27 21:29N 01°17' E 103°46'0 0.0
2018-Jun-27 20:59N 01°17' E 103°46'0 0.1
2018-Jun-27 20:26N 01°17' E 103°46'0 0.1
2018-Jun-27 20:00N 01°17' E 103°46'0 0.0
2018-Jun-27 19:27N 01°17' E 103°46'0 0.0
2018-Jun-27 18:56N 01°17' E 103°46'0 0.0
2018-Jun-27 18:30N 01°17' E 103°46'0 0.0
2018-Jun-27 17:57N 01°17' E 103°46'0 0.0
2018-Jun-27 17:27N 01°17' E 103°46'0 0.1
2018-Jun-27 16:54N 01°17' E 103°46'0 0.1
2018-Jun-27 16:29N 01°17' E 103°46'0 0.1
2018-Jun-27 16:00N 01°17' E 103°46'0 0.1
2018-Jun-27 15:30N 01°17' E 103°46'0 0.0
2018-Jun-27 15:00N 01°17' E 103°46'0 0.0
2018-Jun-27 14:29N 01°17' E 103°46'0 0.0
2018-Jun-27 14:00N 01°17' E 103°46'0 0.0
2018-Jun-27 13:27N 01°17' E 103°46'0 0.0
2018-Jun-27 12:53N 01°17' E 103°46'0 0.0
2018-Jun-27 12:30N 01°17' E 103°46'  

Dump ship's entire track history